sensor_id;sensor_type;location;lat;lon;timestamp;temperature;humidity
26909;DHT22;14477;51.038;4.588;2022-10-15T00:01:38;15.60;99.90
26909;DHT22;14477;51.038;4.588;2022-10-15T00:04:04;15.50;99.90
26909;DHT22;14477;51.038;4.588;2022-10-15T00:06:30;15.50;99.90
26909;DHT22;14477;51.038;4.588;2022-10-15T00:08:55;15.50;99.90
26909;DHT22;14477;51.038;4.588;2022-10-15T00:11:24;15.50;99.90
26909;DHT22;14477;51.038;4.588;2022-10-15T00:13:56;15.50;99.90
26909;DHT22;14477;51.038;4.588;2022-10-15T00:16:24;15.50;99.90
26909;DHT22;14477;51.038;4.588;2022-10-15T00:18:51;15.50;99.90
26909;DHT22;14477;51.038;4.588;2022-10-15T00:21:18;15.50;99.90
26909;DHT22;14477;51.038;4.588;2022-10-15T00:23:45;15.60;99.90
26909;DHT22;14477;51.038;4.588;2022-10-15T00:26:14;15.60;99.90
26909;DHT22;14477;51.038;4.588;2022-10-15T00:28:40;15.60;99.90
26909;DHT22;14477;51.038;4.588;2022-10-15T00:31:12;15.60;99.90
26909;DHT22;14477;51.038;4.588;2022-10-15T00:33:39;15.60;99.90
26909;DHT22;14477;51.038;4.588;2022-10-15T00:36:16;15.60;99.90
26909;DHT22;14477;51.038;4.588;2022-10-15T00:38:42;15.70;99.90
26909;DHT22;14477;51.038;4.588;2022-10-15T00:41:19;15.70;99.90
26909;DHT22;14477;51.038;4.588;2022-10-15T00:46:32;15.80;99.90
26909;DHT22;14477;51.038;4.588;2022-10-15T00:49:16;15.80;99.90
26909;DHT22;14477;51.038;4.588;2022-10-15T00:51:46;15.80;99.90
26909;DHT22;14477;51.038;4.588;2022-10-15T00:54:14;15.80;99.90
26909;DHT22;14477;51.038;4.588;2022-10-15T00:56:42;15.80;99.90
26909;DHT22;14477;51.038;4.588;2022-10-15T00:59:10;15.90;99.90
26909;DHT22;14477;51.038;4.588;2022-10-15T01:01:37;15.90;99.90
26909;DHT22;14477;51.038;4.588;2022-10-15T01:04:04;15.90;99.90
26909;DHT22;14477;51.038;4.588;2022-10-15T01:06:30;15.90;99.90
26909;DHT22;14477;51.038;4.588;2022-10-15T01:08:56;15.90;99.90
26909;DHT22;14477;51.038;4.588;2022-10-15T01:11:51;15.90;99.90
26909;DHT22;14477;51.038;4.588;2022-10-15T01:17:19;16.00;99.90
26909;DHT22;14477;51.038;4.588;2022-10-15T01:33:43;16.00;99.90
26909;DHT22;14477;51.038;4.588;2022-10-15T01:36:46;16.00;99.90
26909;DHT22;14477;51.038;4.588;2022-10-15T01:39:32;16.00;99.90
26909;DHT22;14477;51.038;4.588;2022-10-15T01:42:06;16.10;99.90
26909;DHT22;14477;51.038;4.588;2022-10-15T01:44:43;16.00;99.90
26909;DHT22;14477;51.038;4.588;2022-10-15T01:47:18;16.00;99.90
26909;DHT22;14477;51.038;4.588;2022-10-15T01:49:46;16.00;99.90
26909;DHT22;14477;51.038;4.588;2022-10-15T01:52:16;16.00;99.90
26909;DHT22;14477;51.038;4.588;2022-10-15T01:54:45;16.00;99.90
26909;DHT22;14477;51.038;4.588;2022-10-15T01:57:14;16.00;99.90
26909;DHT22;14477;51.038;4.588;2022-10-15T01:59:41;16.00;99.90
26909;DHT22;14477;51.038;4.588;2022-10-15T02:02:07;16.00;99.90
26909;DHT22;14477;51.038;4.588;2022-10-15T02:04:33;16.00;99.90
26909;DHT22;14477;51.038;4.588;2022-10-15T02:12:21;16.00;99.90
26909;DHT22;14477;51.038;4.588;2022-10-15T02:15:00;16.00;99.90
26909;DHT22;14477;51.038;4.588;2022-10-15T02:17:39;16.10;99.90
26909;DHT22;14477;51.038;4.588;2022-10-15T02:20:14;16.00;99.90
26909;DHT22;14477;51.038;4.588;2022-10-15T02:22:47;16.00;99.90
26909;DHT22;14477;51.038;4.588;2022-10-15T02:25:19;16.00;99.90
26909;DHT22;14477;51.038;4.588;2022-10-15T02:27:47;16.00;99.90
26909;DHT22;14477;51.038;4.588;2022-10-15T02:30:14;16.00;99.90
26909;DHT22;14477;51.038;4.588;2022-10-15T02:32:42;16.00;99.90
26909;DHT22;14477;51.038;4.588;2022-10-15T02:35:10;15.90;99.90
26909;DHT22;14477;51.038;4.588;2022-10-15T02:37:37;15.90;99.90
26909;DHT22;14477;51.038;4.588;2022-10-15T02:40:06;15.90;99.90
26909;DHT22;14477;51.038;4.588;2022-10-15T02:42:32;15.90;99.90
26909;DHT22;14477;51.038;4.588;2022-10-15T02:44:58;15.80;99.90
26909;DHT22;14477;51.038;4.588;2022-10-15T02:47:24;15.80;99.90
26909;DHT22;14477;51.038;4.588;2022-10-15T02:49:49;15.80;99.90
26909;DHT22;14477;51.038;4.588;2022-10-15T02:52:15;15.80;99.90
26909;DHT22;14477;51.038;4.588;2022-10-15T02:54:40;15.80;99.90
26909;DHT22;14477;51.038;4.588;2022-10-15T02:57:06;15.70;99.90
26909;DHT22;14477;51.038;4.588;2022-10-15T02:59:32;15.70;99.90
26909;DHT22;14477;51.038;4.588;2022-10-15T03:01:57;15.70;99.90
26909;DHT22;14477;51.038;4.588;2022-10-15T03:04:23;15.70;99.90
26909;DHT22;14477;51.038;4.588;2022-10-15T03:06:48;15.70;99.90
26909;DHT22;14477;51.038;4.588;2022-10-15T03:09:15;15.70;99.90
26909;DHT22;14477;51.038;4.588;2022-10-15T03:11:40;15.70;99.90
26909;DHT22;14477;51.038;4.588;2022-10-15T03:14:06;15.60;99.90
26909;DHT22;14477;51.038;4.588;2022-10-15T03:16:32;15.60;99.90
26909;DHT22;14477;51.038;4.588;2022-10-15T03:18:57;15.60;99.90
26909;DHT22;14477;51.038;4.588;2022-10-15T03:21:23;15.60;99.90
26909;DHT22;14477;51.038;4.588;2022-10-15T03:23:49;15.60;99.90
26909;DHT22;14477;51.038;4.588;2022-10-15T03:26:14;15.50;99.90
26909;DHT22;14477;51.038;4.588;2022-10-15T03:28:40;15.50;99.90
26909;DHT22;14477;51.038;4.588;2022-10-15T03:31:05;15.50;99.90
26909;DHT22;14477;51.038;4.588;2022-10-15T03:33:31;15.50;99.90
26909;DHT22;14477;51.038;4.588;2022-10-15T03:35:57;15.50;99.90
26909;DHT22;14477;51.038;4.588;2022-10-15T03:38:22;15.50;99.90
26909;DHT22;14477;51.038;4.588;2022-10-15T03:40:48;15.50;99.90
26909;DHT22;14477;51.038;4.588;2022-10-15T03:43:14;15.40;99.90
26909;DHT22;14477;51.038;4.588;2022-10-15T03:45:39;15.40;99.90
26909;DHT22;14477;51.038;4.588;2022-10-15T03:48:05;15.40;99.90
26909;DHT22;14477;51.038;4.588;2022-10-15T03:50:31;15.40;99.90
26909;DHT22;14477;51.038;4.588;2022-10-15T03:52:56;15.30;99.90
26909;DHT22;14477;51.038;4.588;2022-10-15T03:55:22;15.40;99.90
26909;DHT22;14477;51.038;4.588;2022-10-15T03:57:48;15.30;99.90
26909;DHT22;14477;51.038;4.588;2022-10-15T04:00:14;15.30;99.90
26909;DHT22;14477;51.038;4.588;2022-10-15T04:02:40;15.30;99.90
26909;DHT22;14477;51.038;4.588;2022-10-15T04:05:05;15.30;99.90
26909;DHT22;14477;51.038;4.588;2022-10-15T04:07:31;15.20;99.90
26909;DHT22;14477;51.038;4.588;2022-10-15T04:09:57;15.20;99.90
26909;DHT22;14477;51.038;4.588;2022-10-15T04:12:22;15.20;99.90
26909;DHT22;14477;51.038;4.588;2022-10-15T04:14:48;15.20;99.90
26909;DHT22;14477;51.038;4.588;2022-10-15T04:17:15;15.10;99.90
26909;DHT22;14477;51.038;4.588;2022-10-15T04:19:40;15.10;99.90
26909;DHT22;14477;51.038;4.588;2022-10-15T04:22:06;15.00;99.90
26909;DHT22;14477;51.038;4.588;2022-10-15T04:24:32;15.00;99.90
26909;DHT22;14477;51.038;4.588;2022-10-15T04:26:57;14.90;99.90
26909;DHT22;14477;51.038;4.588;2022-10-15T04:29:23;14.80;99.90
26909;DHT22;14477;51.038;4.588;2022-10-15T04:31:48;14.90;99.90
26909;DHT22;14477;51.038;4.588;2022-10-15T04:34:14;14.80;99.90
26909;DHT22;14477;51.038;4.588;2022-10-15T04:36:40;14.80;99.90
26909;DHT22;14477;51.038;4.588;2022-10-15T04:39:05;14.80;99.90
26909;DHT22;14477;51.038;4.588;2022-10-15T04:41:31;14.80;99.90
26909;DHT22;14477;51.038;4.588;2022-10-15T04:43:57;14.80;99.90
26909;DHT22;14477;51.038;4.588;2022-10-15T04:46:23;14.80;99.90
26909;DHT22;14477;51.038;4.588;2022-10-15T04:48:49;14.80;99.90
26909;DHT22;14477;51.038;4.588;2022-10-15T04:51:17;14.90;99.90
26909;DHT22;14477;51.038;4.588;2022-10-15T04:53:43;14.90;99.90
26909;DHT22;14477;51.038;4.588;2022-10-15T04:56:11;14.90;99.90
26909;DHT22;14477;51.038;4.588;2022-10-15T04:58:41;15.00;99.90
26909;DHT22;14477;51.038;4.588;2022-10-15T05:01:09;15.10;99.90
26909;DHT22;14477;51.038;4.588;2022-10-15T05:03:42;15.10;99.90
26909;DHT22;14477;51.038;4.588;2022-10-15T05:06:19;15.20;99.90
26909;DHT22;14477;51.038;4.588;2022-10-15T05:08:46;15.20;99.90
26909;DHT22;14477;51.038;4.588;2022-10-15T05:11:24;15.20;99.90
26909;DHT22;14477;51.038;4.588;2022-10-15T05:13:50;15.30;99.90
26909;DHT22;14477;51.038;4.588;2022-10-15T05:16:18;15.30;99.90
26909;DHT22;14477;51.038;4.588;2022-10-15T05:18:46;15.40;99.90
26909;DHT22;14477;51.038;4.588;2022-10-15T05:21:13;15.40;99.90
26909;DHT22;14477;51.038;4.588;2022-10-15T05:23:39;15.40;99.90
26909;DHT22;14477;51.038;4.588;2022-10-15T05:26:07;15.40;99.90
26909;DHT22;14477;51.038;4.588;2022-10-15T05:28:34;15.40;99.90
26909;DHT22;14477;51.038;4.588;2022-10-15T05:31:08;15.40;99.90
26909;DHT22;14477;51.038;4.588;2022-10-15T05:33:34;15.40;99.90
26909;DHT22;14477;51.038;4.588;2022-10-15T05:36:23;15.40;99.90
26909;DHT22;14477;51.038;4.588;2022-10-15T05:38:52;15.50;99.90
26909;DHT22;14477;51.038;4.588;2022-10-15T05:41:18;15.40;99.90
26909;DHT22;14477;51.038;4.588;2022-10-15T05:43:52;15.50;99.90
26909;DHT22;14477;51.038;4.588;2022-10-15T05:46:19;15.40;99.90
26909;DHT22;14477;51.038;4.588;2022-10-15T05:48:49;15.50;99.90
26909;DHT22;14477;51.038;4.588;2022-10-15T05:51:15;15.40;99.90
26909;DHT22;14477;51.038;4.588;2022-10-15T05:53:41;15.50;99.90
26909;DHT22;14477;51.038;4.588;2022-10-15T05:56:08;15.50;99.90
26909;DHT22;14477;51.038;4.588;2022-10-15T05:58:35;15.50;99.90
26909;DHT22;14477;51.038;4.588;2022-10-15T06:01:03;15.50;99.90
26909;DHT22;14477;51.038;4.588;2022-10-15T06:03:29;15.50;99.90
26909;DHT22;14477;51.038;4.588;2022-10-15T06:05:55;15.50;99.90
26909;DHT22;14477;51.038;4.588;2022-10-15T06:08:21;15.50;99.90
26909;DHT22;14477;51.038;4.588;2022-10-15T06:10:47;15.40;99.90
26909;DHT22;14477;51.038;4.588;2022-10-15T06:13:13;15.40;99.90
26909;DHT22;14477;51.038;4.588;2022-10-15T06:15:43;15.40;99.90
26909;DHT22;14477;51.038;4.588;2022-10-15T06:18:11;15.40;99.90
26909;DHT22;14477;51.038;4.588;2022-10-15T06:20:37;15.40;99.90
26909;DHT22;14477;51.038;4.588;2022-10-15T06:23:03;15.40;99.90
26909;DHT22;14477;51.038;4.588;2022-10-15T06:25:29;15.40;99.90
26909;DHT22;14477;51.038;4.588;2022-10-15T06:27:59;15.40;99.90
26909;DHT22;14477;51.038;4.588;2022-10-15T06:30:25;15.40;99.90
26909;DHT22;14477;51.038;4.588;2022-10-15T06:32:51;15.40;99.90
26909;DHT22;14477;51.038;4.588;2022-10-15T06:35:19;15.40;99.90
26909;DHT22;14477;51.038;4.588;2022-10-15T06:37:45;15.40;99.90
26909;DHT22;14477;51.038;4.588;2022-10-15T06:40:11;15.40;99.90
26909;DHT22;14477;51.038;4.588;2022-10-15T06:42:37;15.50;99.90
26909;DHT22;14477;51.038;4.588;2022-10-15T06:45:04;15.50;99.90
26909;DHT22;14477;51.038;4.588;2022-10-15T06:47:30;15.60;99.90
26909;DHT22;14477;51.038;4.588;2022-10-15T06:49:55;15.60;99.90
26909;DHT22;14477;51.038;4.588;2022-10-15T06:52:21;15.60;99.90
26909;DHT22;14477;51.038;4.588;2022-10-15T06:54:48;15.70;99.90
26909;DHT22;14477;51.038;4.588;2022-10-15T06:57:13;15.70;99.90
26909;DHT22;14477;51.038;4.588;2022-10-15T06:59:39;15.70;99.90
26909;DHT22;14477;51.038;4.588;2022-10-15T07:02:05;15.70;99.90
26909;DHT22;14477;51.038;4.588;2022-10-15T07:04:30;15.80;99.90
26909;DHT22;14477;51.038;4.588;2022-10-15T07:06:56;15.80;99.90
26909;DHT22;14477;51.038;4.588;2022-10-15T07:09:22;15.80;99.90
26909;DHT22;14477;51.038;4.588;2022-10-15T07:11:48;15.90;99.90
26909;DHT22;14477;51.038;4.588;2022-10-15T07:14:13;15.90;99.90
26909;DHT22;14477;51.038;4.588;2022-10-15T07:16:39;15.90;99.90
26909;DHT22;14477;51.038;4.588;2022-10-15T07:19:05;15.90;99.90
26909;DHT22;14477;51.038;4.588;2022-10-15T07:21:30;16.00;99.90
26909;DHT22;14477;51.038;4.588;2022-10-15T07:23:56;16.00;99.90
26909;DHT22;14477;51.038;4.588;2022-10-15T07:26:23;16.10;99.90
26909;DHT22;14477;51.038;4.588;2022-10-15T07:28:49;16.20;99.90
26909;DHT22;14477;51.038;4.588;2022-10-15T07:31:15;16.20;99.90
26909;DHT22;14477;51.038;4.588;2022-10-15T07:33:41;16.30;99.90
26909;DHT22;14477;51.038;4.588;2022-10-15T07:36:09;16.30;99.90
26909;DHT22;14477;51.038;4.588;2022-10-15T07:38:37;16.40;99.90
26909;DHT22;14477;51.038;4.588;2022-10-15T07:41:06;16.50;99.90
26909;DHT22;14477;51.038;4.588;2022-10-15T07:43:32;16.50;99.90
26909;DHT22;14477;51.038;4.588;2022-10-15T07:45:58;16.50;99.90
26909;DHT22;14477;51.038;4.588;2022-10-15T07:48:24;16.50;99.90
26909;DHT22;14477;51.038;4.588;2022-10-15T07:51:00;16.60;99.90
26909;DHT22;14477;51.038;4.588;2022-10-15T07:53:26;16.60;99.90
26909;DHT22;14477;51.038;4.588;2022-10-15T07:55:52;16.70;99.90
26909;DHT22;14477;51.038;4.588;2022-10-15T07:58:18;16.70;99.90
26909;DHT22;14477;51.038;4.588;2022-10-15T08:00:44;16.70;99.90
26909;DHT22;14477;51.038;4.588;2022-10-15T08:03:10;16.80;99.90
26909;DHT22;14477;51.038;4.588;2022-10-15T08:05:35;16.90;99.90
26909;DHT22;14477;51.038;4.588;2022-10-15T08:08:01;17.00;99.90
26909;DHT22;14477;51.038;4.588;2022-10-15T08:10:27;17.00;99.90
26909;DHT22;14477;51.038;4.588;2022-10-15T08:12:53;17.10;99.90
26909;DHT22;14477;51.038;4.588;2022-10-15T08:15:19;17.10;99.90
26909;DHT22;14477;51.038;4.588;2022-10-15T08:17:45;17.20;99.90
26909;DHT22;14477;51.038;4.588;2022-10-15T08:20:10;17.20;99.90
26909;DHT22;14477;51.038;4.588;2022-10-15T08:22:36;17.30;99.90
26909;DHT22;14477;51.038;4.588;2022-10-15T08:25:03;17.30;99.90
26909;DHT22;14477;51.038;4.588;2022-10-15T08:27:28;17.30;99.90
26909;DHT22;14477;51.038;4.588;2022-10-15T08:29:54;17.30;99.90
26909;DHT22;14477;51.038;4.588;2022-10-15T08:32:20;17.30;99.90
26909;DHT22;14477;51.038;4.588;2022-10-15T08:34:46;17.30;99.90
26909;DHT22;14477;51.038;4.588;2022-10-15T08:37:11;17.30;99.90
26909;DHT22;14477;51.038;4.588;2022-10-15T08:39:37;17.30;99.90
26909;DHT22;14477;51.038;4.588;2022-10-15T08:42:17;17.30;99.90
26909;DHT22;14477;51.038;4.588;2022-10-15T08:44:56;17.30;99.90
26909;DHT22;14477;51.038;4.588;2022-10-15T08:50:41;17.40;99.90
26909;DHT22;14477;51.038;4.588;2022-10-15T08:53:12;17.40;99.90
26909;DHT22;14477;51.038;4.588;2022-10-15T08:55:41;17.50;99.90
26909;DHT22;14477;51.038;4.588;2022-10-15T08:58:15;17.50;99.90
26909;DHT22;14477;51.038;4.588;2022-10-15T09:01:07;17.60;99.90
26909;DHT22;14477;51.038;4.588;2022-10-15T09:03:55;17.70;99.90
26909;DHT22;14477;51.038;4.588;2022-10-15T09:14:27;17.80;99.90
26909;DHT22;14477;51.038;4.588;2022-10-15T09:16:55;17.80;99.90
26909;DHT22;14477;51.038;4.588;2022-10-15T09:19:23;17.90;99.90
26909;DHT22;14477;51.038;4.588;2022-10-15T09:21:51;17.90;99.90
26909;DHT22;14477;51.038;4.588;2022-10-15T09:24:22;17.90;99.90
26909;DHT22;14477;51.038;4.588;2022-10-15T09:27:13;17.90;99.90
26909;DHT22;14477;51.038;4.588;2022-10-15T09:32:33;18.00;99.90
26909;DHT22;14477;51.038;4.588;2022-10-15T09:35:15;18.00;99.90
26909;DHT22;14477;51.038;4.588;2022-10-15T09:40:42;18.10;99.90
26909;DHT22;14477;51.038;4.588;2022-10-15T09:43:11;18.10;99.90
26909;DHT22;14477;51.038;4.588;2022-10-15T09:45:37;18.20;99.90
26909;DHT22;14477;51.038;4.588;2022-10-15T09:48:14;18.20;99.90
26909;DHT22;14477;51.038;4.588;2022-10-15T09:50:48;18.20;99.90
26909;DHT22;14477;51.038;4.588;2022-10-15T09:56:10;18.40;99.90
26909;DHT22;14477;51.038;4.588;2022-10-15T09:58:53;18.40;99.90
26909;DHT22;14477;51.038;4.588;2022-10-15T10:01:24;18.40;99.90
26909;DHT22;14477;51.038;4.588;2022-10-15T10:03:52;18.50;99.90
26909;DHT22;14477;51.038;4.588;2022-10-15T10:06:18;18.60;99.90
26909;DHT22;14477;51.038;4.588;2022-10-15T10:08:54;18.60;99.90
26909;DHT22;14477;51.038;4.588;2022-10-15T10:11:23;18.70;99.90
26909;DHT22;14477;51.038;4.588;2022-10-15T10:13:52;18.80;99.90
26909;DHT22;14477;51.038;4.588;2022-10-15T10:16:20;18.80;99.90
26909;DHT22;14477;51.038;4.588;2022-10-15T10:19:13;18.90;99.90
26909;DHT22;14477;51.038;4.588;2022-10-15T10:21:40;19.00;99.90
26909;DHT22;14477;51.038;4.588;2022-10-15T10:24:36;19.10;99.90
26909;DHT22;14477;51.038;4.588;2022-10-15T10:27:02;19.10;99.90
26909;DHT22;14477;51.038;4.588;2022-10-15T10:29:28;19.20;99.90
26909;DHT22;14477;51.038;4.588;2022-10-15T10:31:57;19.20;99.90
26909;DHT22;14477;51.038;4.588;2022-10-15T10:34:28;19.20;99.90
26909;DHT22;14477;51.038;4.588;2022-10-15T10:36:55;19.10;99.90
26909;DHT22;14477;51.038;4.588;2022-10-15T10:39:33;19.20;99.90
26909;DHT22;14477;51.038;4.588;2022-10-15T10:42:06;19.20;99.90
26909;DHT22;14477;51.038;4.588;2022-10-15T10:44:40;19.20;99.90
26909;DHT22;14477;51.038;4.588;2022-10-15T10:49:44;19.40;99.90
26909;DHT22;14477;51.038;4.588;2022-10-15T10:54:46;19.50;99.90
26909;DHT22;14477;51.038;4.588;2022-10-15T10:57:16;19.50;99.90
26909;DHT22;14477;51.038;4.588;2022-10-15T10:59:51;19.60;99.90
26909;DHT22;14477;51.038;4.588;2022-10-15T11:02:18;19.60;99.90
26909;DHT22;14477;51.038;4.588;2022-10-15T11:04:44;19.60;99.90
26909;DHT22;14477;51.038;4.588;2022-10-15T11:15:44;19.70;99.90
26909;DHT22;14477;51.038;4.588;2022-10-15T11:24:15;19.90;99.90
26909;DHT22;14477;51.038;4.588;2022-10-15T11:27:10;20.00;99.90
26909;DHT22;14477;51.038;4.588;2022-10-15T11:30:33;20.00;99.90
26909;DHT22;14477;51.038;4.588;2022-10-15T11:35:25;20.50;99.90
26909;DHT22;14477;51.038;4.588;2022-10-15T11:43:04;21.60;99.90
26909;DHT22;14477;51.038;4.588;2022-10-15T11:46:11;21.90;99.90
26909;DHT22;14477;51.038;4.588;2022-10-15T11:49:09;22.10;99.90
26909;DHT22;14477;51.038;4.588;2022-10-15T11:52:06;22.10;99.90
26909;DHT22;14477;51.038;4.588;2022-10-15T11:57:21;22.10;99.90
26909;DHT22;14477;51.038;4.588;2022-10-15T12:00:03;22.10;99.90
26909;DHT22;14477;51.038;4.588;2022-10-15T12:02:34;22.10;99.90
26909;DHT22;14477;51.038;4.588;2022-10-15T12:05:05;22.10;99.90
26909;DHT22;14477;51.038;4.588;2022-10-15T12:18:22;22.20;99.90
26909;DHT22;14477;51.038;4.588;2022-10-15T12:20:51;22.20;99.90
26909;DHT22;14477;51.038;4.588;2022-10-15T12:23:40;22.10;99.90
26909;DHT22;14477;51.038;4.588;2022-10-15T12:26:28;22.10;99.90
26909;DHT22;14477;51.038;4.588;2022-10-15T12:28:58;22.00;99.90
26909;DHT22;14477;51.038;4.588;2022-10-15T12:31:24;22.00;99.90
26909;DHT22;14477;51.038;4.588;2022-10-15T12:33:52;21.90;99.90
26909;DHT22;14477;51.038;4.588;2022-10-15T12:41:41;21.70;99.90
26909;DHT22;14477;51.038;4.588;2022-10-15T12:44:17;21.60;99.90
26909;DHT22;14477;51.038;4.588;2022-10-15T12:46:45;21.60;99.90
26909;DHT22;14477;51.038;4.588;2022-10-15T12:51:56;21.50;99.90
26909;DHT22;14477;51.038;4.588;2022-10-15T12:54:43;21.60;99.90
26909;DHT22;14477;51.038;4.588;2022-10-15T13:00:00;21.70;99.90
26909;DHT22;14477;51.038;4.588;2022-10-15T13:05:02;21.90;99.90
26909;DHT22;14477;51.038;4.588;2022-10-15T13:07:27;22.00;99.90
26909;DHT22;14477;51.038;4.588;2022-10-15T13:09:53;22.10;99.90
26909;DHT22;14477;51.038;4.588;2022-10-15T13:12:22;22.30;99.90
26909;DHT22;14477;51.038;4.588;2022-10-15T13:14:59;22.40;99.90
26909;DHT22;14477;51.038;4.588;2022-10-15T13:17:28;22.50;99.90
26909;DHT22;14477;51.038;4.588;2022-10-15T13:20:04;22.60;99.90
26909;DHT22;14477;51.038;4.588;2022-10-15T13:22:33;22.80;99.90
26909;DHT22;14477;51.038;4.588;2022-10-15T13:25:00;22.90;99.90
26909;DHT22;14477;51.038;4.588;2022-10-15T13:27:34;23.00;99.90
26909;DHT22;14477;51.038;4.588;2022-10-15T13:32:44;23.30;99.90
26909;DHT22;14477;51.038;4.588;2022-10-15T13:35:16;23.30;99.90
26909;DHT22;14477;51.038;4.588;2022-10-15T13:37:43;23.30;99.90
26909;DHT22;14477;51.038;4.588;2022-10-15T13:40:19;23.30;99.90
26909;DHT22;14477;51.038;4.588;2022-10-15T13:43:03;23.20;99.70
26909;DHT22;14477;51.038;4.588;2022-10-15T13:45:30;23.10;98.50
26909;DHT22;14477;51.038;4.588;2022-10-15T13:47:57;23.10;99.90
26909;DHT22;14477;51.038;4.588;2022-10-15T13:50:29;23.00;99.90
26909;DHT22;14477;51.038;4.588;2022-10-15T13:53:21;23.00;99.90
26909;DHT22;14477;51.038;4.588;2022-10-15T13:55:53;22.90;98.30
26909;DHT22;14477;51.038;4.588;2022-10-15T14:03:23;22.80;99.50
26909;DHT22;14477;51.038;4.588;2022-10-15T14:05:51;22.80;99.90
26909;DHT22;14477;51.038;4.588;2022-10-15T14:08:32;22.80;99.90
26909;DHT22;14477;51.038;4.588;2022-10-15T14:10:58;22.70;98.40
26909;DHT22;14477;51.038;4.588;2022-10-15T14:13:25;22.70;99.90
26909;DHT22;14477;51.038;4.588;2022-10-15T14:16:11;22.60;99.80
26909;DHT22;14477;51.038;4.588;2022-10-15T14:18:44;22.50;99.00
26909;DHT22;14477;51.038;4.588;2022-10-15T14:21:15;22.50;99.90
26909;DHT22;14477;51.038;4.588;2022-10-15T14:23:44;22.40;99.70
26909;DHT22;14477;51.038;4.588;2022-10-15T14:26:11;22.40;99.90
26909;DHT22;14477;51.038;4.588;2022-10-15T14:28:39;22.50;99.90
26909;DHT22;14477;51.038;4.588;2022-10-15T14:31:05;22.50;99.90
26909;DHT22;14477;51.038;4.588;2022-10-15T14:36:12;22.50;99.30
26909;DHT22;14477;51.038;4.588;2022-10-15T14:38:39;22.50;99.90
26909;DHT22;14477;51.038;4.588;2022-10-15T14:41:28;22.50;99.90
26909;DHT22;14477;51.038;4.588;2022-10-15T14:44:02;22.50;96.90
26909;DHT22;14477;51.038;4.588;2022-10-15T14:46:47;22.40;97.90
26909;DHT22;14477;51.038;4.588;2022-10-15T14:49:26;22.40;97.00
26909;DHT22;14477;51.038;4.588;2022-10-15T14:51:55;22.30;96.40
26909;DHT22;14477;51.038;4.588;2022-10-15T14:54:25;22.20;98.80
26909;DHT22;14477;51.038;4.588;2022-10-15T14:56:54;22.10;98.40
26909;DHT22;14477;51.038;4.588;2022-10-15T14:59:26;22.10;99.00
26909;DHT22;14477;51.038;4.588;2022-10-15T15:01:54;22.10;98.50
26909;DHT22;14477;51.038;4.588;2022-10-15T15:04:42;22.00;98.90
26909;DHT22;14477;51.038;4.588;2022-10-15T15:07:19;22.00;96.50
26909;DHT22;14477;51.038;4.588;2022-10-15T15:09:49;22.00;97.60
26909;DHT22;14477;51.038;4.588;2022-10-15T15:12:21;22.00;98.00
26909;DHT22;14477;51.038;4.588;2022-10-15T15:14:47;21.90;97.80
26909;DHT22;14477;51.038;4.588;2022-10-15T15:17:22;21.90;99.10
26909;DHT22;14477;51.038;4.588;2022-10-15T15:19:50;21.90;98.60
26909;DHT22;14477;51.038;4.588;2022-10-15T15:22:20;21.80;98.30
26909;DHT22;14477;51.038;4.588;2022-10-15T15:24:47;21.80;98.30
26909;DHT22;14477;51.038;4.588;2022-10-15T15:27:24;21.80;98.50
26909;DHT22;14477;51.038;4.588;2022-10-15T15:29:51;21.70;96.90
26909;DHT22;14477;51.038;4.588;2022-10-15T15:32:17;21.70;97.80
26909;DHT22;14477;51.038;4.588;2022-10-15T15:34:44;21.70;98.00
26909;DHT22;14477;51.038;4.588;2022-10-15T15:37:18;21.60;97.70
26909;DHT22;14477;51.038;4.588;2022-10-15T15:39:44;21.60;96.20
26909;DHT22;14477;51.038;4.588;2022-10-15T15:42:16;21.50;97.60
26909;DHT22;14477;51.038;4.588;2022-10-15T15:44:42;21.50;96.60
26909;DHT22;14477;51.038;4.588;2022-10-15T15:47:09;21.40;97.70
26909;DHT22;14477;51.038;4.588;2022-10-15T15:49:35;21.30;97.30
26909;DHT22;14477;51.038;4.588;2022-10-15T15:52:03;21.30;97.40
26909;DHT22;14477;51.038;4.588;2022-10-15T15:54:29;21.30;97.50
26909;DHT22;14477;51.038;4.588;2022-10-15T15:56:55;21.20;97.50
26909;DHT22;14477;51.038;4.588;2022-10-15T15:59:20;21.10;97.40
26909;DHT22;14477;51.038;4.588;2022-10-15T16:01:46;21.10;97.50
26909;DHT22;14477;51.038;4.588;2022-10-15T16:04:12;21.10;97.50
26909;DHT22;14477;51.038;4.588;2022-10-15T16:06:38;21.00;97.20
26909;DHT22;14477;51.038;4.588;2022-10-15T16:09:04;21.00;97.20
26909;DHT22;14477;51.038;4.588;2022-10-15T16:11:31;20.90;97.10
26909;DHT22;14477;51.038;4.588;2022-10-15T16:13:57;20.80;97.00
26909;DHT22;14477;51.038;4.588;2022-10-15T16:16:24;20.80;97.00
26909;DHT22;14477;51.038;4.588;2022-10-15T16:18:50;20.70;97.00
26909;DHT22;14477;51.038;4.588;2022-10-15T16:21:26;20.70;97.10
26909;DHT22;14477;51.038;4.588;2022-10-15T16:23:51;20.60;95.70
26909;DHT22;14477;51.038;4.588;2022-10-15T16:26:17;20.50;97.00
26909;DHT22;14477;51.038;4.588;2022-10-15T16:28:43;20.40;96.80
26909;DHT22;14477;51.038;4.588;2022-10-15T16:31:20;20.40;96.80
26909;DHT22;14477;51.038;4.588;2022-10-15T16:33:46;20.30;96.00
26909;DHT22;14477;51.038;4.588;2022-10-15T16:36:12;20.20;96.70
26909;DHT22;14477;51.038;4.588;2022-10-15T16:38:42;20.20;96.80
26909;DHT22;14477;51.038;4.588;2022-10-15T16:41:08;20.10;96.00
26909;DHT22;14477;51.038;4.588;2022-10-15T16:43:35;20.00;96.60
26909;DHT22;14477;51.038;4.588;2022-10-15T16:46:01;19.90;96.50
26909;DHT22;14477;51.038;4.588;2022-10-15T16:48:31;19.90;96.70
26909;DHT22;14477;51.038;4.588;2022-10-15T16:51:05;19.80;96.50
26909;DHT22;14477;51.038;4.588;2022-10-15T16:53:36;19.70;95.90
26909;DHT22;14477;51.038;4.588;2022-10-15T16:56:05;19.60;96.60
26909;DHT22;14477;51.038;4.588;2022-10-15T16:58:31;19.60;96.30
26909;DHT22;14477;51.038;4.588;2022-10-15T17:00:58;19.50;96.60
26909;DHT22;14477;51.038;4.588;2022-10-15T17:03:24;19.40;96.50
26909;DHT22;14477;51.038;4.588;2022-10-15T17:05:57;19.40;96.60
26909;DHT22;14477;51.038;4.588;2022-10-15T17:08:27;19.30;96.00
26909;DHT22;14477;51.038;4.588;2022-10-15T17:10:53;19.30;96.50
26909;DHT22;14477;51.038;4.588;2022-10-15T17:13:18;19.20;96.80
26909;DHT22;14477;51.038;4.588;2022-10-15T17:15:45;19.20;96.80
26909;DHT22;14477;51.038;4.588;2022-10-15T17:18:11;19.10;96.70
26909;DHT22;14477;51.038;4.588;2022-10-15T17:20:44;19.00;96.80
26909;DHT22;14477;51.038;4.588;2022-10-15T17:23:10;19.00;96.20
26909;DHT22;14477;51.038;4.588;2022-10-15T17:25:36;18.90;97.00
26909;DHT22;14477;51.038;4.588;2022-10-15T17:28:01;18.90;97.10
26909;DHT22;14477;51.038;4.588;2022-10-15T17:30:27;18.80;97.20
26909;DHT22;14477;51.038;4.588;2022-10-15T17:32:53;18.80;97.40
26909;DHT22;14477;51.038;4.588;2022-10-15T17:35:18;18.70;97.50